Time;durP1;ratioP1;P1;durP2;ratioP2;P2;SDS_P1;SDS_P2;PMS_P1;PMS_P2;Temp;Humidity;BMP_temperature;BMP_pressure;BME280_temperature;BME280_humidity;BME280_pressure;Samples;Min_cycle;Max_cycle;Signal;HPM_P1;HPM_P2
2022/11/17 00:00:26;;;;;;;23.00;6.63;;;;;;;21.82;56.41;98762.34;4993218;28;20026;-42
2022/11/17 00:02:52;;;;;;;17.70;5.20;;;;;;;21.82;56.58;98755.25;4994083;28;20095;-41
2022/11/17 00:05:18;;;;;;;19.23;6.47;;;;;;;21.82;56.58;98751.81;4997034;28;20046;-48
2022/11/17 00:07:44;;;;;;;14.20;4.90;;;;;;;21.81;56.61;98740.47;4987769;28;20044;-39
2022/11/17 00:10:10;;;;;;;12.38;4.60;;;;;;;21.81;56.40;98750.97;4987702;28;20069;-40
2022/11/17 00:15:19;;;;;;;17.92;6.43;;;;;;;21.80;56.47;98733.53;4975679;28;20634;-40
2022/11/17 00:17:48;;;;;;;17.15;5.32;;;;;;;21.80;56.39;98717.75;4977237;28;20038;-41
2022/11/17 00:22:58;;;;;;;16.30;4.28;;;;;;;21.79;56.39;98716.91;4977319;28;20049;-41
2022/11/17 00:25:23;;;;;;;13.85;5.15;;;;;;;21.80;56.51;98705.44;4975971;28;20046;-41
2022/11/17 00:27:49;;;;;;;16.02;5.00;;;;;;;21.80;56.50;98704.59;4979730;28;20038;-42
2022/11/17 00:34:03;;;;;;;13.48;4.90;;;;;;;21.80;56.54;98696.72;4977175;28;20455;-40
2022/11/17 00:35:53;;;;;;;17.38;5.00;;;;;;;21.78;56.38;98686.34;4979631;28;20073;-41
2022/11/17 00:38:19;;;;;;;14.50;4.65;;;;;;;21.78;56.50;98675.81;4977426;28;20773;-39
2022/11/17 00:40:45;;;;;;;12.20;4.93;;;;;;;21.78;56.40;98665.28;4970522;28;20081;-42
2022/11/17 00:43:11;;;;;;;14.15;4.95;;;;;;;21.78;56.48;98651.31;4973373;28;20039;-39
2022/11/17 00:45:36;;;;;;;19.02;5.70;;;;;;;21.78;56.50;98653.94;4974123;28;20078;-40
2022/11/17 00:48:02;;;;;;;13.50;4.05;;;;;;;21.77;56.44;98637.31;4975137;28;20121;-41
2022/11/17 00:50:28;;;;;;;13.75;4.47;;;;;;;21.77;56.57;98634.69;4974219;28;20054;-40
2022/11/17 00:52:53;;;;;;;14.85;5.28;;;;;;;21.77;56.42;98629.44;4976123;28;20443;-39
2022/11/17 00:55:18;;;;;;;18.45;6.50;;;;;;;21.77;56.56;98625.97;4972186;28;20512;-39
2022/11/17 00:57:44;;;;;;;11.85;4.03;;;;;;;21.76;56.38;98630.38;4974581;28;20121;-40
2022/11/17 01:00:12;;;;;;;12.13;5.30;;;;;;;21.76;56.44;98633.00;4975180;28;20030;-41
2022/11/17 01:02:38;;;;;;;16.80;5.55;;;;;;;21.76;56.38;98621.66;4992537;28;20034;-42
2022/11/17 01:05:03;;;;;;;15.70;4.50;;;;;;;21.75;56.41;98618.22;4995840;28;20840;-43
2022/11/17 01:07:29;;;;;;;14.63;4.88;;;;;;;21.76;56.60;98622.50;4995768;28;20100;-42
2022/11/17 01:09:54;;;;;;;18.85;5.55;;;;;;;21.76;56.46;98611.13;4994349;28;20030;-41
2022/11/17 01:12:19;;;;;;;24.52;5.38;;;;;;;21.73;56.38;98601.72;4996385;28;20038;-41
2022/11/17 01:14:45;;;;;;;15.70;4.18;;;;;;;21.74;56.39;98607.81;4993171;28;20042;-41
2022/11/17 01:17:10;;;;;;;13.20;4.45;;;;;;;21.74;56.47;98597.31;4993369;28;20046;-42
2022/11/17 01:19:36;;;;;;;13.40;5.35;;;;;;;21.76;56.52;98598.00;4992084;28;21113;-42
2022/11/17 01:22:01;;;;;;;9.48;4.07;;;;;;;21.73;56.58;98591.22;4999557;28;20075;-41
2022/11/17 01:24:27;;;;;;;17.15;6.53;;;;;;;21.73;56.42;98580.69;4992645;28;20048;-42
2022/11/17 01:26:52;;;;;;;10.73;3.47;;;;;;;21.73;56.63;98580.69;5002210;28;20042;-41
2022/11/17 01:29:17;;;;;;;21.60;8.25;;;;;;;21.73;56.58;98574.59;4993871;28;20042;-43
2022/11/17 01:31:44;;;;;;;16.88;5.82;;;;;;;21.73;56.45;98566.72;4995821;28;20053;-41
2022/11/17 01:34:11;;;;;;;12.38;4.28;;;;;;;21.72;56.48;98563.28;4999247;28;20033;-41
2022/11/17 01:39:27;;;;;;;23.10;9.63;;;;;;;21.72;56.48;98557.19;4993990;28;20108;-43
2022/11/17 01:41:53;;;;;;;15.88;6.00;;;;;;;21.71;56.54;98566.84;5000688;28;20045;-42
2022/11/17 01:44:40;;;;;;;13.43;4.15;;;;;;;21.71;56.40;98545.81;4992842;28;20607;-42
2022/11/17 01:47:24;;;;;;;12.00;4.25;;;;;;;21.71;56.25;98537.94;4994360;28;20120;-41
2022/11/17 01:49:53;;;;;;;13.27;4.72;;;;;;;21.71;56.59;98540.56;4995400;28;20034;-42
2022/11/17 01:52:19;;;;;;;34.78;9.57;;;;;;;21.71;56.33;98539.72;5005280;28;20057;-41
2022/11/17 01:54:46;;;;;;;13.07;4.38;;;;;;;21.70;56.43;98540.72;4995778;28;20034;-41
2022/11/17 01:57:19;;;;;;;15.20;5.03;;;;;;;21.71;56.33;98526.56;4997592;28;20092;-41
2022/11/17 01:59:50;;;;;;;11.55;4.20;;;;;;;21.70;56.45;98522.31;4997786;28;20037;-42
2022/11/17 02:02:16;;;;;;;8.82;3.25;;;;;;;21.71;56.37;98518.69;4994017;28;20044;-43
2022/11/17 02:04:52;;;;;;;12.45;4.78;;;;;;;21.70;56.70;98528.38;4994861;28;20037;-42
2022/11/17 02:07:30;;;;;;;13.57;4.68;;;;;;;21.70;56.45;98517.03;4994166;28;20132;-41
2022/11/17 02:09:56;;;;;;;20.83;6.07;;;;;;;21.70;56.47;98517.03;4997927;28;20112;-42
2022/11/17 02:12:24;;;;;;;15.75;5.50;;;;;;;21.69;56.49;98526.72;4996524;28;20036;-41
2022/11/17 02:14:50;;;;;;;13.93;4.50;;;;;;;21.69;56.49;98510.13;4992783;28;20050;-42
2022/11/17 02:17:17;;;;;;;16.65;5.93;;;;;;;21.68;56.42;98511.06;4995757;28;21685;-42
2022/11/17 02:19:49;;;;;;;14.48;5.15;;;;;;;21.68;56.41;98504.03;4996189;28;20410;-42
2022/11/17 02:22:48;;;;;;;16.23;5.10;;;;;;;21.68;56.31;98501.41;4997376;28;20033;-41
2022/11/17 02:25:35;;;;;;;14.82;4.50;;;;;;;21.68;56.38;98500.56;4997236;28;20033;-42
2022/11/17 02:28:16;;;;;;;14.05;4.65;;;;;;;21.67;56.33;98491.84;4993917;28;20061;-41
2022/11/17 02:31:02;;;;;;;17.08;5.47;;;;;;;21.67;56.25;98485.78;4995849;28;20133;-43
2022/11/17 02:33:53;;;;;;;19.45;5.85;;;;;;;21.67;56.43;98485.78;4994778;28;20642;-42
2022/11/17 02:36:35;;;;;;;16.67;4.65;;;;;;;21.67;56.29;98477.88;4998106;28;20042;-42
2022/11/17 02:39:11;;;;;;;15.68;4.95;;;;;;;21.67;56.15;98472.63;4995604;28;20049;-40
2022/11/17 02:41:55;;;;;;;16.90;5.95;;;;;;;21.66;56.31;98466.53;4994685;28;20598;-42
2022/11/17 02:44:35;;;;;;;16.52;5.63;;;;;;;21.66;56.47;98473.56;4995778;28;20049;-41
2022/11/17 02:47:06;;;;;;;11.70;3.70;;;;;;;21.66;56.36;98469.16;4996061;28;20034;-40
2022/11/17 02:49:36;;;;;;;12.75;5.30;;;;;;;21.66;56.28;98463.91;4994244;28;20184;-41
2022/11/17 02:52:03;;;;;;;11.52;4.82;;;;;;;21.66;56.30;98457.81;4994170;28;20932;-41
2022/11/17 02:54:30;;;;;;;13.27;4.40;;;;;;;21.65;56.46;98459.59;4995086;28;20042;-42
2022/11/17 02:56:56;;;;;;;14.25;5.20;;;;;;;21.64;56.32;98449.22;4995022;28;20125;-43
2022/11/17 02:59:28;;;;;;;18.25;7.35;;;;;;;21.64;56.44;98454.50;4995737;28;20045;-41
2022/11/17 03:02:30;;;;;;;14.20;3.88;;;;;;;21.65;56.40;98456.13;4997491;28;20124;-41
2022/11/17 03:05:20;;;;;;;12.32;3.65;;;;;;;21.64;56.46;98454.50;5003754;28;20132;-42
2022/11/17 03:08:16;;;;;;;11.20;3.28;;;;;;;21.63;56.41;98456.28;5001311;28;20062;-40
2022/11/17 03:10:43;;;;;;;13.00;4.70;;;;;;;21.63;56.44;98456.28;4997075;28;20046;-41
2022/11/17 03:13:22;;;;;;;15.32;4.13;;;;;;;21.63;56.37;98447.56;4999267;28;20049;-41
2022/11/17 03:16:29;;;;;;;13.75;4.60;;;;;;;21.62;56.34;98446.72;5000468;28;20387;-41
2022/11/17 03:19:24;;;;;;;12.68;3.58;;;;;;;21.62;56.34;98449.34;4999738;28;20030;-43
2022/11/17 03:21:54;;;;;;;9.63;2.97;;;;;;;21.63;56.37;98447.56;4999737;28;20028;-42
2022/11/17 03:24:29;;;;;;;14.15;4.00;;;;;;;21.62;56.35;98440.63;5001416;28;20120;-43
2022/11/17 03:27:00;;;;;;;13.52;3.42;;;;;;;21.61;56.36;98431.91;4997664;28;20045;-41
2022/11/17 03:29:29;;;;;;;14.05;5.25;;;;;;;21.62;56.35;98440.63;5001288;28;20645;-41
2022/11/17 03:32:05;;;;;;;12.85;4.10;;;;;;;21.62;56.41;98440.63;4996285;28;20050;-39
2022/11/17 03:34:38;;;;;;;15.35;4.40;;;;;;;21.61;56.39;98439.78;4998135;28;20559;-41
2022/11/17 03:37:06;;;;;;;15.50;4.10;;;;;;;21.62;56.38;98435.38;4997667;28;20104;-44
2022/11/17 03:39:35;;;;;;;15.20;4.15;;;;;;;21.60;56.43;98430.28;4997123;28;20042;-45
2022/11/17 03:42:09;;;;;;;11.15;3.45;;;;;;;21.60;56.30;98430.28;4998512;28;20030;-45
2022/11/17 03:44:38;;;;;;;17.30;5.88;;;;;;;21.60;56.50;98424.19;4982878;28;20561;-44
2022/11/17 03:47:06;;;;;;;11.48;3.17;;;;;;;21.60;56.50;98422.38;4999250;28;20038;-44
2022/11/17 03:49:41;;;;;;;15.70;4.82;;;;;;;21.60;56.51;98409.25;4997570;28;20436;-42
2022/11/17 03:52:06;;;;;;;12.32;3.55;;;;;;;21.59;56.28;98412.00;4998892;28;20818;-44
2022/11/17 03:54:33;;;;;;;14.88;4.60;;;;;;;21.59;56.32;98398.84;4997660;28;20113;-44
2022/11/17 03:57:32;;;;;;;8.98;2.85;;;;;;;21.59;56.25;98383.06;4994409;28;20039;-44
2022/11/17 04:00:14;;;;;;;20.33;6.10;;;;;;;21.59;56.27;98378.66;4998090;28;20045;-44
2022/11/17 04:02:41;;;;;;;14.40;4.78;;;;;;;21.58;56.40;98371.72;5024856;28;20035;-44
2022/11/17 04:05:08;;;;;;;12.13;3.70;;;;;;;21.58;56.29;98382.22;4997338;28;20058;-43
2022/11/17 04:07:41;;;;;;;16.42;6.35;;;;;;;21.57;56.49;98393.75;4990528;28;20045;-44
2022/11/17 04:10:11;;;;;;;17.30;6.17;;;;;;;21.58;56.43;98381.44;4992839;28;20045;-43
2022/11/17 04:18:05;;;;;;;13.57;4.75;;;;;;;21.56;56.25;98373.66;4974920;28;20092;-42
2022/11/17 04:20:34;;;;;;;13.27;4.68;;;;;;;21.56;56.32;98378.09;4970869;28;20034;-43
2022/11/17 04:23:11;;;;;;;13.15;4.15;;;;;;;21.55;56.47;98364.09;4976000;28;20715;-43
2022/11/17 04:28:36;;;;;;;14.95;5.30;;;;;;;21.56;56.32;98372.84;4976872;28;20132;-43
2022/11/17 04:31:26;;;;;;;13.18;4.05;;;;;;;21.56;56.29;98364.94;4973642;28;20695;-44
2022/11/17 04:33:57;;;;;;;13.80;4.30;;;;;;;21.55;56.30;98363.28;4973993;28;20097;-44
2022/11/17 04:36:25;;;;;;;10.38;3.67;;;;;;;21.55;56.54;98372.00;4979728;28;20034;-44
2022/11/17 04:38:53;;;;;;;13.55;4.30;;;;;;;21.54;56.55;98357.19;4974875;28;20465;-44
2022/11/17 04:44:05;;;;;;;13.68;4.70;;;;;;;21.54;56.44;98353.72;4975591;28;20160;-46
2022/11/17 04:46:33;;;;;;;14.68;5.53;;;;;;;21.54;56.26;98358.97;4968421;28;20030;-45
2022/11/17 04:48:59;;;;;;;12.45;4.38;;;;;;;21.54;56.45;98353.72;4977363;28;20077;-43
2022/11/17 04:51:26;;;;;;;13.98;4.25;;;;;;;21.53;56.33;98352.06;4976365;28;20027;-45
2022/11/17 04:53:51;;;;;;;13.85;4.95;;;;;;;21.53;56.37;98336.28;4977280;28;20038;-44
2022/11/17 04:56:19;;;;;;;10.77;4.53;;;;;;;21.53;56.38;98333.66;4976970;28;20523;-44
2022/11/17 04:58:45;;;;;;;11.85;5.22;;;;;;;21.52;56.46;98332.81;4973475;28;20038;-43
2022/11/17 05:01:14;;;;;;;12.55;4.97;;;;;;;21.52;56.50;98332.00;4976006;28;20388;-42
2022/11/17 05:03:47;;;;;;;10.10;4.22;;;;;;;21.52;56.54;98332.00;4970824;28;20424;-43
2022/11/17 05:06:22;;;;;;;19.50;5.55;;;;;;;21.52;56.32;98334.63;4977338;28;20391;-43
2022/11/17 05:08:49;;;;;;;10.88;4.05;;;;;;;21.53;56.26;98331.03;4975712;28;20038;-44
2022/11/17 05:14:00;;;;;;;14.23;5.43;;;;;;;21.51;56.24;98319.81;4980931;28;20089;-44
2022/11/17 05:17:08;;;;;;;17.05;6.57;;;;;;;21.52;56.27;98332.00;4975270;28;20038;-42
2022/11/17 05:19:17;;;;;;;15.50;5.97;;;;;;;21.51;56.28;98328.53;4982468;28;20404;-43
2022/11/17 05:21:43;;;;;;;11.55;3.97;;;;;;;21.51;56.27;98325.09;4981157;28;20023;-43
2022/11/17 05:24:08;;;;;;;13.48;4.65;;;;;;;21.51;56.49;98318.03;4980542;28;20209;-44
2022/11/17 05:26:36;;;;;;;14.93;4.60;;;;;;;21.51;56.41;98322.47;4978684;28;20038;-42
2022/11/17 05:29:04;;;;;;;12.93;4.63;;;;;;;21.51;56.24;98327.72;4980900;28;20065;-44
2022/11/17 05:31:30;;;;;;;13.32;5.65;;;;;;;21.50;56.33;98321.63;4977426;28;21190;-43
2022/11/17 05:33:55;;;;;;;12.13;4.35;;;;;;;21.50;56.41;98315.53;4978534;28;20046;-44
2022/11/17 05:36:26;;;;;;;19.48;6.22;;;;;;;21.50;56.23;98316.38;4982600;28;20038;-42
2022/11/17 05:38:53;;;;;;;16.65;5.32;;;;;;;21.50;56.47;98319.00;4984246;28;20517;-43
2022/11/17 05:41:19;;;;;;;15.60;5.15;;;;;;;21.50;56.33;98312.91;4984251;28;20036;-42
2022/11/17 05:43:45;;;;;;;12.18;3.58;;;;;;;21.50;56.22;98310.28;4980257;28;20042;-43
2022/11/17 05:46:11;;;;;;;10.13;3.78;;;;;;;21.50;56.38;98310.28;4980806;28;20224;-44
2022/11/17 05:48:37;;;;;;;15.43;5.03;;;;;;;21.50;56.29;98312.91;4979542;28;20030;-40
2022/11/17 05:51:02;;;;;;;13.02;4.57;;;;;;;21.52;56.34;98309.16;4975975;28;20033;-44
2022/11/17 05:53:29;;;;;;;13.48;4.95;;;;;;;21.56;56.31;98317.63;4979529;28;20069;-45
2022/11/17 05:56:27;;;;;;;9.00;3.67;;;;;;;21.59;56.27;98323.44;4980112;28;20046;-44
2022/11/17 05:58:57;;;;;;;12.93;4.43;;;;;;;21.63;56.12;98321.38;4980760;28;20427;-47
2022/11/17 06:01:23;;;;;;;19.77;5.43;;;;;;;21.67;56.01;98320.13;4973320;28;20050;-45
2022/11/17 06:03:55;;;;;;;14.68;5.03;;;;;;;21.69;56.16;98320.78;4981697;28;20526;-47
2022/11/17 06:06:21;;;;;;;20.88;6.05;;;;;;;21.73;56.02;98319.53;4977875;28;20038;-47
2022/11/17 06:08:46;;;;;;;11.30;4.13;;;;;;;21.76;56.02;98333.22;4979249;28;20042;-43
2022/11/17 06:11:13;;;;;;;16.33;4.72;;;;;;;21.78;55.80;98328.66;4978427;28;20040;-43
2022/11/17 06:13:38;;;;;;;13.20;4.80;;;;;;;21.80;55.90;98337.25;4982708;28;20046;-44
2022/11/17 06:16:08;;;;;;;13.68;5.03;;;;;;;21.84;55.69;98343.06;4974853;28;20389;-46
2022/11/17 06:18:39;;;;;;;13.82;4.93;;;;;;;21.85;55.83;98344.69;4980083;28;20114;-42
2022/11/17 06:21:08;;;;;;;11.77;4.03;;;;;;;21.87;55.78;98350.66;5002578;28;20033;-43
2022/11/17 06:23:35;;;;;;;14.88;5.90;;;;;;;21.89;55.59;98359.22;4997607;28;20034;-43
2022/11/17 06:26:05;;;;;;;9.23;3.55;;;;;;;21.92;55.57;98372.09;4996000;28;20046;-43
2022/11/17 06:28:32;;;;;;;14.27;5.00;;;;;;;21.95;55.46;98378.88;5000248;28;20100;-43
2022/11/17 06:30:58;;;;;;;12.65;4.10;;;;;;;22.00;55.46;98393.25;4999645;28;20399;-43
2022/11/17 06:33:25;;;;;;;16.23;5.25;;;;;;;22.07;55.32;98404.03;4996586;28;20505;-44
2022/11/17 06:35:51;;;;;;;16.77;5.05;;;;;;;22.14;55.32;98400.72;4995152;28;20041;-44
2022/11/17 06:38:16;;;;;;;16.92;5.38;;;;;;;22.19;55.07;98395.84;4997325;28;20153;-44
2022/11/17 06:40:45;;;;;;;13.85;4.57;;;;;;;22.23;55.18;98396.41;4999493;28;20034;-45
2022/11/17 06:43:10;;;;;;;15.00;4.95;;;;;;;22.26;55.04;98402.19;4997658;28;20038;-45
2022/11/17 06:45:44;;;;;;;12.02;3.90;;;;;;;22.29;54.99;98408.97;5001275;28;20217;-44
2022/11/17 06:48:11;;;;;;;15.60;5.53;;;;;;;22.30;54.97;98398.28;4993213;28;20511;-44
2022/11/17 06:50:37;;;;;;;12.40;4.97;;;;;;;22.31;55.04;98412.28;4997318;28;20046;-44
2022/11/17 06:53:04;;;;;;;16.35;5.40;;;;;;;22.31;54.98;98417.56;4982172;28;20049;-45
2022/11/17 06:55:33;;;;;;;17.17;4.88;;;;;;;22.30;55.05;98406.19;4976560;28;20081;-44
2022/11/17 06:58:11;;;;;;;18.05;5.57;;;;;;;22.30;55.24;98393.03;4976768;28;20419;-41
2022/11/17 07:00:37;;;;;;;14.80;4.35;;;;;;;22.33;55.16;98405.06;4974758;28;20173;-40
2022/11/17 07:03:05;;;;;;;15.82;5.38;;;;;;;22.34;55.09;98393.56;4977379;28;20031;-41
2022/11/17 07:05:31;;;;;;;16.83;5.70;;;;;;;22.34;55.13;98394.41;4981800;28;20047;-40
2022/11/17 07:07:58;;;;;;;14.23;4.75;;;;;;;22.37;55.17;98390.66;4967697;28;20046;-40
2022/11/17 07:10:24;;;;;;;17.77;5.80;;;;;;;22.37;55.13;98382.75;4972388;28;20070;-40
2022/11/17 07:12:49;;;;;;;17.52;5.55;;;;;;;22.37;54.91;98366.97;4973176;28;20122;-41
2022/11/17 07:15:15;;;;;;;11.85;4.13;;;;;;;22.39;55.02;98374.75;4978862;28;20034;-41
2022/11/17 07:17:40;;;;;;;11.93;3.72;;;;;;;22.39;54.84;98372.94;4976093;28;20088;-42
2022/11/17 07:20:06;;;;;;;15.52;5.03;;;;;;;22.40;54.97;98381.66;4977420;28;20034;-41
2022/11/17 07:22:32;;;;;;;14.88;4.40;;;;;;;22.42;55.04;98379.72;4975356;28;20038;-42
2022/11/17 07:24:57;;;;;;;13.23;4.68;;;;;;;22.45;54.93;98388.16;4981705;28;20041;-44
2022/11/17 07:27:23;;;;;;;17.88;5.40;;;;;;;22.49;54.93;98401.88;4969715;28;20461;-44
2022/11/17 07:29:48;;;;;;;23.40;7.30;;;;;;;22.53;55.15;98404.03;4973458;28;20027;-41
2022/11/17 07:32:13;;;;;;;20.85;5.57;;;;;;;22.57;55.25;98407.22;4975682;28;20078;-42
2022/11/17 07:34:39;;;;;;;18.85;6.25;;;;;;;22.62;55.32;98410.28;4977404;28;20125;-42
2022/11/17 07:37:06;;;;;;;16.15;4.93;;;;;;;22.67;55.26;98416.75;4976738;28;20125;-43
2022/11/17 07:39:31;;;;;;;21.98;5.88;;;;;;;22.71;55.42;98428.63;4982416;28;20578;-42
2022/11/17 07:41:57;;;;;;;21.23;5.03;;;;;;;22.75;55.63;98429.19;4987514;28;20054;-44
2022/11/17 07:44:22;;;;;;;13.48;4.07;;;;;;;22.78;55.61;98435.00;4980789;28;20046;-41
2022/11/17 07:46:47;;;;;;;13.75;4.47;;;;;;;22.80;55.60;98437.47;4977045;28;20169;-43
2022/11/17 07:49:13;;;;;;;18.92;6.82;;;;;;;22.83;55.62;98432.75;4975491;28;20049;-41
2022/11/17 07:51:38;;;;;;;13.45;4.25;;;;;;;22.85;55.70;98432.63;4978342;28;20093;-43
2022/11/17 07:54:04;;;;;;;14.95;5.18;;;;;;;22.87;55.75;98441.19;4974568;28;20116;-43
2022/11/17 07:56:29;;;;;;;18.45;5.03;;;;;;;22.88;55.78;98448.97;5019949;28;20531;-44
2022/11/17 07:58:54;;;;;;;20.83;6.38;;;;;;;22.89;55.73;98450.59;5002431;28;20041;-42
2022/11/17 08:01:20;;;;;;;11.93;4.00;;;;;;;22.91;55.84;98455.75;4995503;28;20050;-49
2022/11/17 08:03:45;;;;;;;15.55;5.10;;;;;;;22.92;55.73;98460.00;4991270;28;20458;-44
2022/11/17 08:06:11;;;;;;;13.75;4.45;;;;;;;22.94;55.82;98457.25;4993715;28;20792;-46
2022/11/17 08:08:37;;;;;;;17.27;5.07;;;;;;;22.97;55.74;98462.22;5000107;28;20745;-43
2022/11/17 08:11:08;;;;;;;13.68;5.35;;;;;;;22.98;55.84;98464.69;5000379;28;20505;-43
2022/11/17 08:13:34;;;;;;;17.35;5.00;;;;;;;22.99;55.77;98466.38;4998983;28;20710;-44
2022/11/17 08:16:00;;;;;;;18.55;6.00;;;;;;;23.00;55.72;98473.31;4994314;28;20045;-42
2022/11/17 08:18:26;;;;;;;13.07;4.70;;;;;;;23.02;55.75;98479.25;4995651;28;20053;-45
2022/11/17 08:20:58;;;;;;;16.17;5.53;;;;;;;23.04;55.82;98479.09;4997831;28;20192;-43
2022/11/17 08:23:24;;;;;;;15.60;5.22;;;;;;;23.07;55.88;98482.28;4992771;28;20046;-41
2022/11/17 08:25:49;;;;;;;12.48;3.65;;;;;;;23.09;55.71;98482.97;4997504;28;20465;-42
2022/11/17 08:28:14;;;;;;;15.60;4.35;;;;;;;23.11;55.50;98486.28;4998062;28;20553;-42
2022/11/17 08:30:40;;;;;;;16.40;4.57;;;;;;;23.11;55.65;98491.56;4998264;28;20201;-43
2022/11/17 08:33:05;;;;;;;17.10;5.45;;;;;;;23.12;55.57;98487.94;4989708;28;20175;-44
2022/11/17 08:35:32;;;;;;;16.38;4.95;;;;;;;23.12;55.70;98490.59;4993685;28;20529;-43
2022/11/17 08:37:57;;;;;;;17.63;5.32;;;;;;;23.14;55.61;98491.25;5001463;28;20034;-43
2022/11/17 08:40:23;;;;;;;16.10;4.30;;;;;;;23.17;55.53;98495.41;4999102;28;20046;-44
2022/11/17 08:42:53;;;;;;;17.63;4.97;;;;;;;23.17;55.57;98498.88;4994629;28;20539;-45
2022/11/17 08:45:19;;;;;;;12.13;4.03;;;;;;;23.18;55.74;98497.94;4987090;28;20029;-44
2022/11/17 08:47:44;;;;;;;14.52;5.68;;;;;;;23.19;55.47;98501.38;4995282;28;20034;-43
2022/11/17 08:50:09;;;;;;;12.00;4.53;;;;;;;23.18;55.53;98508.47;4993429;28;20156;-43
2022/11/17 08:52:35;;;;;;;12.77;4.78;;;;;;;23.18;55.72;98507.66;4989864;28;20038;-42
2022/11/17 08:55:01;;;;;;;14.32;4.88;;;;;;;23.19;55.78;98510.13;4996243;28;20046;-44
2022/11/17 08:57:29;;;;;;;16.85;5.22;;;;;;;23.22;55.74;98514.25;5000626;28;20499;-44
2022/11/17 08:59:54;;;;;;;14.60;4.68;;;;;;;23.23;55.61;98516.78;5000109;28;20048;-44
2022/11/17 09:02:19;;;;;;;11.40;3.88;;;;;;;23.25;55.31;98513.97;5003120;28;20042;-43
2022/11/17 09:04:46;;;;;;;14.50;5.40;;;;;;;23.25;55.38;98514.81;4994481;28;20029;-41
2022/11/17 09:07:12;;;;;;;10.82;3.95;;;;;;;23.26;55.41;98524.38;5002082;28;20037;-45
2022/11/17 09:09:37;;;;;;;21.35;6.05;;;;;;;23.28;55.53;98522.41;4999833;28;20100;-45
2022/11/17 09:12:03;;;;;;;13.95;4.32;;;;;;;23.31;55.40;98518.66;4999226;28;20118;-43
2022/11/17 09:14:28;;;;;;;15.18;4.55;;;;;;;23.33;55.48;98522.81;4994302;28;20042;-44
2022/11/17 09:16:53;;;;;;;10.85;3.90;;;;;;;23.36;55.48;98526.97;5001117;28;20435;-44
2022/11/17 09:19:19;;;;;;;17.77;7.55;;;;;;;23.35;55.31;98528.78;4992205;28;20046;-42
2022/11/17 09:21:44;;;;;;;15.43;5.30;;;;;;;23.35;55.50;98525.31;4979794;28;20026;-44
2022/11/17 09:24:10;;;;;;;12.13;4.13;;;;;;;23.35;55.50;98535.84;4980462;28;20034;-47
2022/11/17 09:26:39;;;;;;;14.65;3.85;;;;;;;23.34;55.79;98531.53;4977834;28;20081;-43
2022/11/17 09:29:05;;;;;;;17.38;5.20;;;;;;;23.37;55.65;98525.97;4983251;28;20057;-43
2022/11/17 09:31:31;;;;;;;16.90;4.75;;;;;;;23.40;55.70;98538.88;4984222;28;20058;-43
2022/11/17 09:33:57;;;;;;;15.23;4.55;;;;;;;23.42;55.64;98543.00;4981566;28;20084;-44
2022/11/17 09:36:22;;;;;;;16.40;6.15;;;;;;;23.45;55.23;98550.63;4977795;28;20058;-47
2022/11/17 09:38:47;;;;;;;9.65;3.58;;;;;;;23.42;55.39;98542.22;4989458;28;20057;-44
2022/11/17 09:41:37;;;;;;;23.88;5.82;;;;;;;23.39;55.36;98547.78;4982823;28;20373;-43
2022/11/17 09:44:11;;;;;;;22.13;6.38;;;;;;;23.41;55.37;98551.91;4978377;28;20042;-49
2022/11/17 09:46:42;;;;;;;15.27;5.38;;;;;;;23.40;55.43;98560.78;4988885;28;20046;-43
2022/11/17 09:49:45;;;;;;;15.38;4.88;;;;;;;23.39;55.37;98553.84;4977661;28;20049;-45
2022/11/17 09:52:29;;;;;;;13.40;4.28;;;;;;;23.39;55.45;98567.03;4982821;28;20566;-43
2022/11/17 09:54:59;;;;;;;18.60;5.25;;;;;;;23.39;55.45;98567.03;4974622;28;20033;-44
2022/11/17 09:57:37;;;;;;;14.70;4.78;;;;;;;23.39;55.42;98577.56;5012294;28;20116;-44
2022/11/17 10:00:13;;;;;;;10.90;3.10;;;;;;;23.39;55.29;98588.13;4977038;28;20128;-43
2022/11/17 10:02:40;;;;;;;16.10;4.97;;;;;;;23.41;55.50;98593.28;4975122;28;20066;-43
2022/11/17 10:05:12;;;;;;;16.42;5.60;;;;;;;23.43;55.40;98597.41;4977150;28;20038;-42
2022/11/17 10:07:43;;;;;;;18.27;5.93;;;;;;;23.43;55.35;98591.31;4979989;28;20046;-41
2022/11/17 10:10:16;;;;;;;14.32;4.03;;;;;;;23.42;55.30;98592.31;4978413;28;20393;-41
2022/11/17 10:12:47;;;;;;;10.68;3.95;;;;;;;23.43;55.25;98597.41;4980768;28;20030;-42
2022/11/17 10:15:24;;;;;;;11.82;3.75;;;;;;;23.44;55.34;98614.91;4976891;28;20026;-44
2022/11/17 10:17:50;;;;;;;14.13;4.97;;;;;;;23.44;55.38;98604.38;4979150;28;20523;-43
2022/11/17 10:20:17;;;;;;;16.67;5.07;;;;;;;23.47;55.26;98605.03;4979315;28;20039;-43
2022/11/17 10:22:45;;;;;;;14.88;4.43;;;;;;;23.50;55.20;98607.38;4982028;28;20041;-42
2022/11/17 10:25:37;;;;;;;11.68;4.00;;;;;;;23.50;55.10;98613.50;4976874;28;20125;-41
2022/11/17 10:28:05;;;;;;;16.30;5.43;;;;;;;23.50;55.24;98610.03;4984523;28;20041;-43
2022/11/17 10:30:31;;;;;;;13.68;6.13;;;;;;;23.49;55.14;98614.47;4979094;28;20129;-43
2022/11/17 10:32:59;;;;;;;15.45;4.57;;;;;;;23.50;55.42;98620.56;4969732;28;20046;-43
2022/11/17 10:35:30;;;;;;;21.90;6.95;;;;;;;23.51;55.31;98614.31;4978968;28;20037;-45
2022/11/17 10:38:01;;;;;;;13.60;4.45;;;;;;;23.53;55.08;98612.38;4979512;28;20090;-45
2022/11/17 10:40:28;;;;;;;17.58;5.15;;;;;;;23.53;55.29;98621.13;4974239;28;20038;-43
2022/11/17 10:43:18;;;;;;;16.00;5.18;;;;;;;23.53;54.98;98628.19;4980316;28;20038;-44
2022/11/17 10:46:02;;;;;;;16.85;4.85;;;;;;;23.50;55.08;98625.84;4978682;28;20038;-42
2022/11/17 10:48:32;;;;;;;17.17;5.95;;;;;;;23.48;55.12;98627.81;4974896;28;20035;-45
2022/11/17 10:51:08;;;;;;;13.30;4.53;;;;;;;23.48;55.21;98619.91;4973081;28;20074;-41
2022/11/17 10:53:39;;;;;;;13.90;4.88;;;;;;;23.49;55.33;98627.66;4980767;28;20039;-41
2022/11/17 10:56:20;;;;;;;13.13;4.13;;;;;;;23.52;55.21;98629.16;4977793;28;20034;-41
2022/11/17 10:58:55;;;;;;;15.75;6.28;;;;;;;23.54;55.00;98627.22;4978070;28;20045;-41
2022/11/17 11:01:33;;;;;;;13.85;4.38;;;;;;;23.54;55.13;98625.38;4974306;28;20045;-41
2022/11/17 11:03:59;;;;;;;17.50;4.25;;;;;;;23.53;54.91;98622.91;4976802;28;20034;-43
2022/11/17 11:06:28;;;;;;;13.68;4.72;;;;;;;23.50;55.23;98618.75;4978125;28;20028;-43
2022/11/17 11:08:58;;;;;;;15.45;4.80;;;;;;;23.49;55.20;98625.00;4980930;28;20042;-40
2022/11/17 11:11:36;;;;;;;12.27;4.22;;;;;;;23.51;54.95;98640.69;4984786;28;20038;-42
2022/11/17 11:14:11;;;;;;;13.48;4.95;;;;;;;23.52;55.07;98634.44;4981238;28;20037;-42
2022/11/17 11:16:39;;;;;;;14.82;5.18;;;;;;;23.51;55.19;98636.25;4974737;28;20050;-42
2022/11/17 11:19:12;;;;;;;15.95;5.07;;;;;;;23.54;55.10;98638.56;4974606;28;20043;-42
2022/11/17 11:22:19;;;;;;;16.83;6.05;;;;;;;23.53;54.88;98654.56;4980296;28;20396;-41
2022/11/17 11:24:51;;;;;;;12.52;4.22;;;;;;;23.51;55.24;98653.88;4974283;28;20058;-44
2022/11/17 11:27:54;;;;;;;7.47;3.05;;;;;;;23.50;55.00;98657.50;4980754;28;20488;-44
2022/11/17 11:30:19;;;;;;;31.50;8.73;;;;;;;23.52;55.07;98652.88;4967552;28;20048;-45
2022/11/17 11:33:21;;;;;;;15.77;5.25;;;;;;;23.53;55.08;98660.66;4980723;28;20042;-45
2022/11/17 11:35:54;;;;;;;17.98;6.97;;;;;;;23.56;54.93;98662.19;4976760;28;20038;-41
2022/11/17 11:38:47;;;;;;;9.18;3.25;;;;;;;23.57;55.12;98664.66;4980044;28;20061;-44
2022/11/17 11:41:30;;;;;;;12.98;4.75;;;;;;;23.56;55.15;98665.66;4954044;28;20121;-44
2022/11/17 11:44:12;;;;;;;13.35;4.90;;;;;;;23.55;55.11;98656.06;4975118;28;20039;-43
2022/11/17 11:46:41;;;;;;;12.18;4.53;;;;;;;23.54;54.87;98654.41;4972687;28;20039;-43
2022/11/17 11:49:15;;;;;;;14.20;4.53;;;;;;;23.54;55.21;98657.03;4977706;28;20042;-41
2022/11/17 11:51:42;;;;;;;12.05;3.45;;;;;;;23.55;55.06;98663.97;4982053;28;20041;-43
2022/11/17 11:54:31;;;;;;;10.57;3.75;;;;;;;23.58;54.96;98665.50;4970196;28;20030;-43
2022/11/17 11:56:57;;;;;;;15.10;4.88;;;;;;;23.59;54.79;98670.63;4973975;28;20329;-43
2022/11/17 11:59:54;;;;;;;12.70;5.88;;;;;;;23.61;54.69;98667.84;4979297;28;20125;-46
2022/11/17 12:03:01;;;;;;;12.40;3.50;;;;;;;23.62;54.59;98659.81;4969495;28;20132;-43
2022/11/17 12:05:57;;;;;;;15.15;4.35;;;;;;;23.56;54.45;98670.09;4972681;28;20066;-42